sensor_id;sensor_type;location;lat;lon;timestamp;P1;durP1;ratioP1;P2;durP2;ratioP2
20857;SDS011;10589;53.636;10.012;2024-01-15T04:45:18;17.57;;;2.83;;
20857;SDS011;10589;53.636;10.012;2024-01-15T04:47:44;24.10;;;3.00;;
20857;SDS011;10589;53.636;10.012;2024-01-15T04:50:10;27.13;;;2.93;;
20857;SDS011;10589;53.636;10.012;2024-01-15T04:52:35;25.87;;;3.03;;
20857;SDS011;10589;53.636;10.012;2024-01-15T04:55:01;21.77;;;2.77;;
20857;SDS011;10589;53.636;10.012;2024-01-15T04:57:27;26.70;;;3.00;;
20857;SDS011;10589;53.636;10.012;2024-01-15T04:59:52;23.50;;;3.97;;
20857;SDS011;10589;53.636;10.012;2024-01-15T05:02:18;27.67;;;3.43;;
20857;SDS011;10589;53.636;10.012;2024-01-15T05:04:43;23.50;;;3.63;;
20857;SDS011;10589;53.636;10.012;2024-01-15T05:07:09;40.23;;;4.60;;
20857;SDS011;10589;53.636;10.012;2024-01-15T05:09:34;26.90;;;4.43;;
20857;SDS011;10589;53.636;10.012;2024-01-15T05:12:00;29.70;;;3.67;;
20857;SDS011;10589;53.636;10.012;2024-01-15T05:14:25;27.73;;;4.03;;
20857;SDS011;10589;53.636;10.012;2024-01-15T05:16:51;30.20;;;4.03;;
20857;SDS011;10589;53.636;10.012;2024-01-15T05:19:17;36.60;;;4.97;;
20857;SDS011;10589;53.636;10.012;2024-01-15T05:21:43;31.87;;;4.20;;
20857;SDS011;10589;53.636;10.012;2024-01-15T05:24:08;42.00;;;4.37;;
20857;SDS011;10589;53.636;10.012;2024-01-15T05:26:34;32.13;;;3.53;;
20857;SDS011;10589;53.636;10.012;2024-01-15T05:29:00;28.00;;;3.83;;
20857;SDS011;10589;53.636;10.012;2024-01-15T05:31:25;38.17;;;4.83;;
20857;SDS011;10589;53.636;10.012;2024-01-15T05:33:51;36.60;;;3.97;;
20857;SDS011;10589;53.636;10.012;2024-01-15T05:36:16;27.97;;;3.37;;
20857;SDS011;10589;53.636;10.012;2024-01-15T05:38:42;32.93;;;3.57;;
20857;SDS011;10589;53.636;10.012;2024-01-15T05:41:08;30.43;;;4.00;;
20857;SDS011;10589;53.636;10.012;2024-01-15T05:43:33;27.07;;;3.77;;
20857;SDS011;10589;53.636;10.012;2024-01-15T05:45:59;33.63;;;3.67;;
20857;SDS011;10589;53.636;10.012;2024-01-15T05:48:24;25.60;;;3.67;;
20857;SDS011;10589;53.636;10.012;2024-01-15T05:50:50;24.53;;;2.63;;
20857;SDS011;10589;53.636;10.012;2024-01-15T05:53:15;29.83;;;3.63;;
20857;SDS011;10589;53.636;10.012;2024-01-15T05:55:41;29.10;;;3.53;;
20857;SDS011;10589;53.636;10.012;2024-01-15T05:58:07;29.20;;;3.17;;
20857;SDS011;10589;53.636;10.012;2024-01-15T06:00:32;20.07;;;3.80;;
20857;SDS011;10589;53.636;10.012;2024-01-15T06:03:00;25.20;;;3.90;;
20857;SDS011;10589;53.636;10.012;2024-01-15T06:05:25;24.23;;;3.50;;
20857;SDS011;10589;53.636;10.012;2024-01-15T06:07:51;36.67;;;3.80;;
20857;SDS011;10589;53.636;10.012;2024-01-15T06:10:17;30.73;;;3.63;;
20857;SDS011;10589;53.636;10.012;2024-01-15T06:12:45;38.03;;;4.07;;
20857;SDS011;10589;53.636;10.012;2024-01-15T06:15:11;33.13;;;3.97;;
20857;SDS011;10589;53.636;10.012;2024-01-15T06:17:37;27.03;;;4.13;;
20857;SDS011;10589;53.636;10.012;2024-01-15T06:20:03;26.87;;;3.87;;
20857;SDS011;10589;53.636;10.012;2024-01-15T06:22:29;31.60;;;3.63;;
20857;SDS011;10589;53.636;10.012;2024-01-15T06:24:54;25.63;;;3.07;;
20857;SDS011;10589;53.636;10.012;2024-01-15T06:27:20;29.83;;;3.37;;
20857;SDS011;10589;53.636;10.012;2024-01-15T06:29:46;16.33;;;2.80;;
20857;SDS011;10589;53.636;10.012;2024-01-15T06:32:12;23.20;;;3.03;;
20857;SDS011;10589;53.636;10.012;2024-01-15T06:34:38;31.00;;;4.00;;
20857;SDS011;10589;53.636;10.012;2024-01-15T06:37:04;20.70;;;2.70;;
20857;SDS011;10589;53.636;10.012;2024-01-15T06:39:30;15.70;;;1.87;;
20857;SDS011;10589;53.636;10.012;2024-01-15T06:41:56;16.93;;;2.80;;
20857;SDS011;10589;53.636;10.012;2024-01-15T06:44:21;19.60;;;2.30;;
20857;SDS011;10589;53.636;10.012;2024-01-15T06:46:47;16.00;;;2.30;;
20857;SDS011;10589;53.636;10.012;2024-01-15T06:49:13;9.63;;;1.90;;
20857;SDS011;10589;53.636;10.012;2024-01-15T06:51:39;9.83;;;1.60;;
20857;SDS011;10589;53.636;10.012;2024-01-15T06:54:04;24.67;;;3.00;;
20857;SDS011;10589;53.636;10.012;2024-01-15T06:56:31;23.43;;;3.00;;
20857;SDS011;10589;53.636;10.012;2024-01-15T06:58:57;19.73;;;2.13;;
20857;SDS011;10589;53.636;10.012;2024-01-15T07:01:22;17.90;;;1.60;;
20857;SDS011;10589;53.636;10.012;2024-01-15T07:03:48;16.63;;;2.07;;
20857;SDS011;10589;53.636;10.012;2024-01-15T07:06:14;10.07;;;1.60;;
20857;SDS011;10589;53.636;10.012;2024-01-15T07:08:40;15.60;;;2.17;;
20857;SDS011;10589;53.636;10.012;2024-01-15T07:11:06;11.93;;;1.10;;
20857;SDS011;10589;53.636;10.012;2024-01-15T07:13:32;12.90;;;1.97;;
20857;SDS011;10589;53.636;10.012;2024-01-15T07:15:57;15.73;;;1.97;;
20857;SDS011;10589;53.636;10.012;2024-01-15T07:18:23;11.50;;;2.07;;
20857;SDS011;10589;53.636;10.012;2024-01-15T07:20:49;20.43;;;2.23;;
20857;SDS011;10589;53.636;10.012;2024-01-15T07:23:15;16.53;;;2.10;;
20857;SDS011;10589;53.636;10.012;2024-01-15T07:25:41;13.87;;;1.83;;
20857;SDS011;10589;53.636;10.012;2024-01-15T07:28:07;14.87;;;1.97;;
20857;SDS011;10589;53.636;10.012;2024-01-15T07:30:33;11.73;;;1.60;;
20857;SDS011;10589;53.636;10.012;2024-01-15T07:32:58;8.07;;;1.50;;
20857;SDS011;10589;53.636;10.012;2024-01-15T07:35:24;14.07;;;2.17;;
20857;SDS011;10589;53.636;10.012;2024-01-15T07:37:49;10.67;;;1.33;;
20857;SDS011;10589;53.636;10.012;2024-01-15T07:40:15;12.87;;;1.97;;
20857;SDS011;10589;53.636;10.012;2024-01-15T07:42:41;10.27;;;1.40;;
20857;SDS011;10589;53.636;10.012;2024-01-15T07:45:07;8.80;;;1.20;;
20857;SDS011;10589;53.636;10.012;2024-01-15T07:47:34;7.27;;;1.43;;
20857;SDS011;10589;53.636;10.012;2024-01-15T07:50:00;9.70;;;1.30;;
20857;SDS011;10589;53.636;10.012;2024-01-15T07:52:25;7.77;;;1.27;;
20857;SDS011;10589;53.636;10.012;2024-01-15T07:54:51;9.33;;;1.43;;
20857;SDS011;10589;53.636;10.012;2024-01-15T07:57:17;12.20;;;1.17;;
20857;SDS011;10589;53.636;10.012;2024-01-15T07:59:42;10.47;;;1.40;;
20857;SDS011;10589;53.636;10.012;2024-01-15T08:02:08;12.60;;;1.60;;
20857;SDS011;10589;53.636;10.012;2024-01-15T08:04:33;15.60;;;1.60;;
20857;SDS011;10589;53.636;10.012;2024-01-15T08:06:59;8.90;;;1.33;;
20857;SDS011;10589;53.636;10.012;2024-01-15T08:09:25;12.03;;;1.60;;
20857;SDS011;10589;53.636;10.012;2024-01-15T08:11:50;10.10;;;1.70;;
20857;SDS011;10589;53.636;10.012;2024-01-15T08:14:17;9.00;;;1.57;;
20857;SDS011;10589;53.636;10.012;2024-01-15T08:16:43;12.97;;;1.50;;
20857;SDS011;10589;53.636;10.012;2024-01-15T08:19:08;5.93;;;1.00;;
20857;SDS011;10589;53.636;10.012;2024-01-15T08:21:34;9.83;;;1.53;;
20857;SDS011;10589;53.636;10.012;2024-01-15T08:24:00;12.07;;;1.67;;
20857;SDS011;10589;53.636;10.012;2024-01-15T08:26:29;8.37;;;1.43;;
20857;SDS011;10589;53.636;10.012;2024-01-15T08:28:55;9.63;;;1.40;;
20857;SDS011;10589;53.636;10.012;2024-01-15T08:31:20;14.77;;;1.60;;
20857;SDS011;10589;53.636;10.012;2024-01-15T08:33:46;13.97;;;1.43;;
20857;SDS011;10589;53.636;10.012;2024-01-15T08:36:12;9.10;;;1.53;;
20857;SDS011;10589;53.636;10.012;2024-01-15T08:38:38;10.57;;;1.77;;
20857;SDS011;10589;53.636;10.012;2024-01-15T08:41:04;7.00;;;1.40;;
20857;SDS011;10589;53.636;10.012;2024-01-15T08:43:30;10.97;;;1.83;;
20857;SDS011;10589;53.636;10.012;2024-01-15T08:45:58;16.47;;;1.77;;
20857;SDS011;10589;53.636;10.012;2024-01-15T08:48:24;8.47;;;1.40;;
20857;SDS011;10589;53.636;10.012;2024-01-15T08:50:52;12.27;;;1.80;;
20857;SDS011;10589;53.636;10.012;2024-01-15T08:53:18;7.67;;;1.80;;
20857;SDS011;10589;53.636;10.012;2024-01-15T08:55:44;10.60;;;1.37;;
20857;SDS011;10589;53.636;10.012;2024-01-15T08:58:09;8.07;;;1.20;;
20857;SDS011;10589;53.636;10.012;2024-01-15T09:00:35;11.23;;;1.47;;
20857;SDS011;10589;53.636;10.012;2024-01-15T09:03:01;11.50;;;1.80;;
20857;SDS011;10589;53.636;10.012;2024-01-15T09:05:27;9.83;;;1.40;;
20857;SDS011;10589;53.636;10.012;2024-01-15T09:07:53;6.27;;;1.00;;
20857;SDS011;10589;53.636;10.012;2024-01-15T09:10:19;7.63;;;1.10;;
20857;SDS011;10589;53.636;10.012;2024-01-15T09:12:45;12.47;;;1.60;;
20857;SDS011;10589;53.636;10.012;2024-01-15T09:15:10;6.57;;;1.20;;
20857;SDS011;10589;53.636;10.012;2024-01-15T09:17:36;8.47;;;1.60;;
20857;SDS011;10589;53.636;10.012;2024-01-15T09:20:01;8.23;;;1.20;;
20857;SDS011;10589;53.636;10.012;2024-01-15T09:22:29;8.03;;;1.40;;
20857;SDS011;10589;53.636;10.012;2024-01-15T09:24:55;4.33;;;0.90;;
20857;SDS011;10589;53.636;10.012;2024-01-15T09:27:20;13.70;;;1.40;;
20857;SDS011;10589;53.636;10.012;2024-01-15T09:29:46;9.00;;;1.40;;
20857;SDS011;10589;53.636;10.012;2024-01-15T09:32:12;15.27;;;2.00;;
20857;SDS011;10589;53.636;10.012;2024-01-15T09:34:38;10.40;;;1.53;;
20857;SDS011;10589;53.636;10.012;2024-01-15T09:37:04;9.30;;;1.40;;
20857;SDS011;10589;53.636;10.012;2024-01-15T09:39:30;8.13;;;1.40;;
20857;SDS011;10589;53.636;10.012;2024-01-15T09:41:56;11.07;;;1.27;;
20857;SDS011;10589;53.636;10.012;2024-01-15T09:44:22;8.10;;;1.53;;
20857;SDS011;10589;53.636;10.012;2024-01-15T09:46:48;6.03;;;1.47;;
20857;SDS011;10589;53.636;10.012;2024-01-15T09:49:15;7.20;;;1.40;;
20857;SDS011;10589;53.636;10.012;2024-01-15T09:51:42;14.17;;;1.80;;
20857;SDS011;10589;53.636;10.012;2024-01-15T09:54:08;11.63;;;1.57;;
20857;SDS011;10589;53.636;10.012;2024-01-15T09:56:34;8.17;;;1.67;;
20857;SDS011;10589;53.636;10.012;2024-01-15T09:59:00;6.07;;;1.83;;
20857;SDS011;10589;53.636;10.012;2024-01-15T10:01:28;9.77;;;1.53;;
20857;SDS011;10589;53.636;10.012;2024-01-15T10:03:54;13.37;;;1.90;;
20857;SDS011;10589;53.636;10.012;2024-01-15T10:06:21;7.93;;;1.67;;
20857;SDS011;10589;53.636;10.012;2024-01-15T10:08:47;16.97;;;2.40;;
20857;SDS011;10589;53.636;10.012;2024-01-15T10:11:15;13.03;;;1.73;;
20857;SDS011;10589;53.636;10.012;2024-01-15T10:13:41;10.40;;;2.10;;
20857;SDS011;10589;53.636;10.012;2024-01-15T10:16:09;13.80;;;1.73;;
20857;SDS011;10589;53.636;10.012;2024-01-15T10:18:35;13.43;;;2.20;;
20857;SDS011;10589;53.636;10.012;2024-01-15T10:21:02;11.37;;;2.03;;
20857;SDS011;10589;53.636;10.012;2024-01-15T10:23:28;10.63;;;1.73;;
20857;SDS011;10589;53.636;10.012;2024-01-15T10:25:56;10.50;;;1.60;;
20857;SDS011;10589;53.636;10.012;2024-01-15T10:28:26;19.97;;;2.13;;
20857;SDS011;10589;53.636;10.012;2024-01-15T10:30:54;12.83;;;2.17;;
20857;SDS011;10589;53.636;10.012;2024-01-15T10:33:23;11.80;;;1.30;;
20857;SDS011;10589;53.636;10.012;2024-01-15T10:35:55;9.60;;;1.60;;
20857;SDS011;10589;53.636;10.012;2024-01-15T10:38:25;15.87;;;2.10;;
20857;SDS011;10589;53.636;10.012;2024-01-15T10:40:51;14.70;;;2.53;;
20857;SDS011;10589;53.636;10.012;2024-01-15T10:43:18;7.23;;;1.60;;
20857;SDS011;10589;53.636;10.012;2024-01-15T10:45:47;9.23;;;1.47;;
20857;SDS011;10589;53.636;10.012;2024-01-15T10:48:13;7.73;;;1.20;;
20857;SDS011;10589;53.636;10.012;2024-01-15T10:50:41;9.57;;;1.97;;
20857;SDS011;10589;53.636;10.012;2024-01-15T10:53:07;8.60;;;1.30;;
20857;SDS011;10589;53.636;10.012;2024-01-15T10:55:34;8.33;;;1.30;;
20857;SDS011;10589;53.636;10.012;2024-01-15T10:58:01;12.63;;;1.63;;
20857;SDS011;10589;53.636;10.012;2024-01-15T11:00:28;7.80;;;1.43;;
20857;SDS011;10589;53.636;10.012;2024-01-15T11:02:55;4.90;;;1.30;;
20857;SDS011;10589;53.636;10.012;2024-01-15T11:05:21;10.67;;;1.97;;
20857;SDS011;10589;53.636;10.012;2024-01-15T11:07:50;8.87;;;1.83;;
20857;SDS011;10589;53.636;10.012;2024-01-15T11:13:20;10.57;;;1.30;;
20857;SDS011;10589;53.636;10.012;2024-01-15T11:15:58;4.90;;;1.40;;
20857;SDS011;10589;53.636;10.012;2024-01-15T11:18:35;5.80;;;1.30;;
20857;SDS011;10589;53.636;10.012;2024-01-15T11:23:42;3.63;;;1.30;;
20857;SDS011;10589;53.636;10.012;2024-01-15T11:29:06;7.07;;;1.30;;
20857;SDS011;10589;53.636;10.012;2024-01-15T11:32:03;6.50;;;1.50;;
20857;SDS011;10589;53.636;10.012;2024-01-15T11:35:17;6.40;;;1.57;;
20857;SDS011;10589;53.636;10.012;2024-01-15T11:37:19;6.37;;;1.60;;
20857;SDS011;10589;53.636;10.012;2024-01-15T11:39:45;9.13;;;1.83;;
20857;SDS011;10589;53.636;10.012;2024-01-15T11:42:14;11.57;;;1.40;;
20857;SDS011;10589;53.636;10.012;2024-01-15T11:44:40;10.60;;;1.83;;
20857;SDS011;10589;53.636;10.012;2024-01-15T11:47:07;11.77;;;1.63;;
20857;SDS011;10589;53.636;10.012;2024-01-15T11:52:25;10.30;;;1.60;;
20857;SDS011;10589;53.636;10.012;2024-01-15T11:57:42;7.43;;;1.20;;
20857;SDS011;10589;53.636;10.012;2024-01-15T12:00:12;15.23;;;2.03;;
20857;SDS011;10589;53.636;10.012;2024-01-15T12:02:42;5.93;;;1.17;;
20857;SDS011;10589;53.636;10.012;2024-01-15T12:05:12;9.47;;;1.47;;
20857;SDS011;10589;53.636;10.012;2024-01-15T12:07:39;8.73;;;1.70;;
20857;SDS011;10589;53.636;10.012;2024-01-15T12:10:09;8.30;;;1.70;;
20857;SDS011;10589;53.636;10.012;2024-01-15T12:15:09;6.20;;;1.33;;
20857;SDS011;10589;53.636;10.012;2024-01-15T12:17:35;11.67;;;1.97;;
20857;SDS011;10589;53.636;10.012;2024-01-15T12:20:03;10.97;;;1.87;;
20857;SDS011;10589;53.636;10.012;2024-01-15T12:22:29;8.43;;;1.70;;
20857;SDS011;10589;53.636;10.012;2024-01-15T12:24:55;7.37;;;1.87;;
20857;SDS011;10589;53.636;10.012;2024-01-15T12:27:20;5.20;;;1.63;;
20857;SDS011;10589;53.636;10.012;2024-01-15T12:29:46;5.07;;;1.50;;
20857;SDS011;10589;53.636;10.012;2024-01-15T12:32:12;8.63;;;1.30;;
20857;SDS011;10589;53.636;10.012;2024-01-15T12:34:38;7.03;;;1.60;;
20857;SDS011;10589;53.636;10.012;2024-01-15T12:37:04;5.77;;;1.00;;
20857;SDS011;10589;53.636;10.012;2024-01-15T12:39:33;10.77;;;1.30;;
20857;SDS011;10589;53.636;10.012;2024-01-15T12:42:00;8.53;;;1.50;;
20857;SDS011;10589;53.636;10.012;2024-01-15T12:44:26;4.50;;;1.50;;
20857;SDS011;10589;53.636;10.012;2024-01-15T12:46:53;6.77;;;1.00;;
20857;SDS011;10589;53.636;10.012;2024-01-15T12:49:18;7.97;;;1.13;;
20857;SDS011;10589;53.636;10.012;2024-01-15T12:51:51;5.10;;;1.00;;
20857;SDS011;10589;53.636;10.012;2024-01-15T12:54:22;3.13;;;0.83;;
20857;SDS011;10589;53.636;10.012;2024-01-15T12:56:49;7.70;;;1.43;;
20857;SDS011;10589;53.636;10.012;2024-01-15T12:59:15;5.97;;;1.10;;
20857;SDS011;10589;53.636;10.012;2024-01-15T13:01:41;10.23;;;1.60;;
20857;SDS011;10589;53.636;10.012;2024-01-15T13:04:06;3.00;;;1.10;;
20857;SDS011;10589;53.636;10.012;2024-01-15T13:06:36;5.57;;;1.40;;
20857;SDS011;10589;53.636;10.012;2024-01-15T13:09:02;4.07;;;1.23;;
20857;SDS011;10589;53.636;10.012;2024-01-15T13:11:30;4.77;;;1.50;;
20857;SDS011;10589;53.636;10.012;2024-01-15T13:13:59;7.10;;;1.20;;
20857;SDS011;10589;53.636;10.012;2024-01-15T13:16:24;4.50;;;1.37;;
20857;SDS011;10589;53.636;10.012;2024-01-15T13:18:53;6.27;;;1.23;;
20857;SDS011;10589;53.636;10.012;2024-01-15T13:21:19;2.87;;;1.33;;
20857;SDS011;10589;53.636;10.012;2024-01-15T13:23:44;3.73;;;1.23;;
20857;SDS011;10589;53.636;10.012;2024-01-15T13:26:10;5.43;;;1.30;;
20857;SDS011;10589;53.636;10.012;2024-01-15T13:28:36;3.53;;;1.30;;
20857;SDS011;10589;53.636;10.012;2024-01-15T13:31:01;4.13;;;1.60;;
20857;SDS011;10589;53.636;10.012;2024-01-15T13:33:27;3.60;;;1.60;;
20857;SDS011;10589;53.636;10.012;2024-01-15T13:35:53;5.13;;;1.50;;
20857;SDS011;10589;53.636;10.012;2024-01-15T13:38:18;2.43;;;1.43;;
20857;SDS011;10589;53.636;10.012;2024-01-15T13:40:44;3.80;;;1.50;;
20857;SDS011;10589;53.636;10.012;2024-01-15T13:43:10;4.63;;;1.33;;
20857;SDS011;10589;53.636;10.012;2024-01-15T13:45:36;2.20;;;1.60;;
20857;SDS011;10589;53.636;10.012;2024-01-15T13:48:02;5.13;;;1.90;;
20857;SDS011;10589;53.636;10.012;2024-01-15T13:50:30;3.23;;;1.30;;
20857;SDS011;10589;53.636;10.012;2024-01-15T13:52:56;3.10;;;1.43;;
20857;SDS011;10589;53.636;10.012;2024-01-15T13:55:22;3.83;;;1.40;;
20857;SDS011;10589;53.636;10.012;2024-01-15T13:57:48;7.60;;;1.47;;
20857;SDS011;10589;53.636;10.012;2024-01-15T14:00:13;3.77;;;1.10;;
20857;SDS011;10589;53.636;10.012;2024-01-15T14:02:43;4.43;;;1.37;;
20857;SDS011;10589;53.636;10.012;2024-01-15T14:05:09;2.53;;;1.30;;
20857;SDS011;10589;53.636;10.012;2024-01-15T14:07:37;5.80;;;1.37;;
20857;SDS011;10589;53.636;10.012;2024-01-15T14:10:04;3.43;;;1.60;;
20857;SDS011;10589;53.636;10.012;2024-01-15T14:12:30;4.47;;;1.37;;
20857;SDS011;10589;53.636;10.012;2024-01-15T14:14:58;5.30;;;1.67;;
20857;SDS011;10589;53.636;10.012;2024-01-15T14:17:23;3.23;;;1.50;;
20857;SDS011;10589;53.636;10.012;2024-01-15T14:19:49;6.70;;;1.73;;
20857;SDS011;10589;53.636;10.012;2024-01-15T14:22:15;3.93;;;1.80;;
20857;SDS011;10589;53.636;10.012;2024-01-15T14:24:40;7.13;;;1.53;;
20857;SDS011;10589;53.636;10.012;2024-01-15T14:27:06;6.23;;;1.67;;
20857;SDS011;10589;53.636;10.012;2024-01-15T14:29:32;4.07;;;1.60;;
20857;SDS011;10589;53.636;10.012;2024-01-15T14:31:57;3.67;;;1.87;;
20857;SDS011;10589;53.636;10.012;2024-01-15T14:34:24;3.47;;;1.50;;
20857;SDS011;10589;53.636;10.012;2024-01-15T14:36:51;5.50;;;1.60;;
20857;SDS011;10589;53.636;10.012;2024-01-15T14:39:20;2.83;;;1.60;;
20857;SDS011;10589;53.636;10.012;2024-01-15T14:41:46;6.10;;;1.90;;
20857;SDS011;10589;53.636;10.012;2024-01-15T14:44:12;4.13;;;1.90;;
20857;SDS011;10589;53.636;10.012;2024-01-15T14:46:38;2.53;;;1.83;;
20857;SDS011;10589;53.636;10.012;2024-01-15T14:49:03;6.40;;;2.07;;
20857;SDS011;10589;53.636;10.012;2024-01-15T14:51:30;3.50;;;1.60;;
20857;SDS011;10589;53.636;10.012;2024-01-15T14:53:55;3.10;;;1.50;;
20857;SDS011;10589;53.636;10.012;2024-01-15T14:56:21;2.63;;;1.33;;
20857;SDS011;10589;53.636;10.012;2024-01-15T14:58:47;3.90;;;1.40;;
20857;SDS011;10589;53.636;10.012;2024-01-15T15:01:13;4.40;;;1.67;;
20857;SDS011;10589;53.636;10.012;2024-01-15T15:03:38;3.50;;;1.73;;
20857;SDS011;10589;53.636;10.012;2024-01-15T15:06:04;4.10;;;1.57;;
20857;SDS011;10589;53.636;10.012;2024-01-15T15:08:32;3.13;;;1.50;;
20857;SDS011;10589;53.636;10.012;2024-01-15T15:10:58;3.30;;;1.40;;
20857;SDS011;10589;53.636;10.012;2024-01-15T15:13:24;2.10;;;1.47;;
20857;SDS011;10589;53.636;10.012;2024-01-15T15:15:51;2.77;;;1.43;;
20857;SDS011;10589;53.636;10.012;2024-01-15T15:18:20;3.63;;;1.30;;
20857;SDS011;10589;53.636;10.012;2024-01-15T15:20:47;3.93;;;1.50;;
20857;SDS011;10589;53.636;10.012;2024-01-15T15:23:13;4.23;;;1.30;;
20857;SDS011;10589;53.636;10.012;2024-01-15T15:25:38;3.07;;;1.50;;
20857;SDS011;10589;53.636;10.012;2024-01-15T15:28:04;4.77;;;1.43;;
20857;SDS011;10589;53.636;10.012;2024-01-15T15:30:30;5.10;;;2.10;;
20857;SDS011;10589;53.636;10.012;2024-01-15T15:32:56;3.83;;;1.60;;
20857;SDS011;10589;53.636;10.012;2024-01-15T15:35:22;3.20;;;1.73;;
20857;SDS011;10589;53.636;10.012;2024-01-15T15:37:47;6.57;;;2.00;;
20857;SDS011;10589;53.636;10.012;2024-01-15T15:40:13;3.83;;;1.60;;
20857;SDS011;10589;53.636;10.012;2024-01-15T15:42:38;4.27;;;1.77;;
20857;SDS011;10589;53.636;10.012;2024-01-15T15:45:04;6.20;;;2.40;;
20857;SDS011;10589;53.636;10.012;2024-01-15T15:47:31;5.07;;;2.03;;
20857;SDS011;10589;53.636;10.012;2024-01-15T15:49:57;7.20;;;2.40;;
20857;SDS011;10589;53.636;10.012;2024-01-15T15:52:23;5.63;;;2.33;;
20857;SDS011;10589;53.636;10.012;2024-01-15T15:54:49;5.67;;;2.70;;
20857;SDS011;10589;53.636;10.012;2024-01-15T15:57:15;6.17;;;2.90;;
20857;SDS011;10589;53.636;10.012;2024-01-15T15:59:40;5.20;;;2.63;;
20857;SDS011;10589;53.636;10.012;2024-01-15T16:02:06;7.30;;;2.83;;
20857;SDS011;10589;53.636;10.012;2024-01-15T16:04:32;8.90;;;3.63;;
20857;SDS011;10589;53.636;10.012;2024-01-15T16:06:58;6.47;;;3.10;;
20857;SDS011;10589;53.636;10.012;2024-01-15T16:09:23;5.87;;;3.60;;
20857;SDS011;10589;53.636;10.012;2024-01-15T16:11:49;9.33;;;4.70;;
20857;SDS011;10589;53.636;10.012;2024-01-15T16:14:15;7.13;;;4.43;;
20857;SDS011;10589;53.636;10.012;2024-01-15T16:16:42;9.10;;;4.73;;
20857;SDS011;10589;53.636;10.012;2024-01-15T16:19:08;8.77;;;5.00;;
20857;SDS011;10589;53.636;10.012;2024-01-15T16:21:34;9.83;;;5.63;;
20857;SDS011;10589;53.636;10.012;2024-01-15T16:24:00;9.00;;;5.20;;
20857;SDS011;10589;53.636;10.012;2024-01-15T16:26:25;8.70;;;5.70;;
20857;SDS011;10589;53.636;10.012;2024-01-15T16:28:51;8.70;;;5.63;;
20857;SDS011;10589;53.636;10.012;2024-01-15T16:31:17;16.70;;;6.60;;
20857;SDS011;10589;53.636;10.012;2024-01-15T16:33:43;11.37;;;6.00;;
20857;SDS011;10589;53.636;10.012;2024-01-15T16:36:08;11.23;;;6.40;;
20857;SDS011;10589;53.636;10.012;2024-01-15T16:38:34;10.90;;;6.00;;
20857;SDS011;10589;53.636;10.012;2024-01-15T16:40:59;12.53;;;6.00;;
20857;SDS011;10589;53.636;10.012;2024-01-15T16:43:25;14.53;;;6.50;;
20857;SDS011;10589;53.636;10.012;2024-01-15T16:45:51;16.07;;;7.93;;
20857;SDS011;10589;53.636;10.012;2024-01-15T16:48:17;12.43;;;6.77;;
20857;SDS011;10589;53.636;10.012;2024-01-15T16:50:42;15.43;;;7.20;;
20857;SDS011;10589;53.636;10.012;2024-01-15T16:53:08;15.17;;;7.70;;
20857;SDS011;10589;53.636;10.012;2024-01-15T16:55:35;12.97;;;7.40;;
20857;SDS011;10589;53.636;10.012;2024-01-15T16:58:00;12.37;;;7.37;;
20857;SDS011;10589;53.636;10.012;2024-01-15T17:00:26;9.87;;;7.03;;
20857;SDS011;10589;53.636;10.012;2024-01-15T17:02:52;12.33;;;7.10;;
20857;SDS011;10589;53.636;10.012;2024-01-15T17:05:19;13.70;;;6.70;;
20857;SDS011;10589;53.636;10.012;2024-01-15T17:07:47;12.37;;;7.50;;
20857;SDS011;10589;53.636;10.012;2024-01-15T17:10:13;11.97;;;7.20;;
20857;SDS011;10589;53.636;10.012;2024-01-15T17:12:40;8.60;;;6.30;;
20857;SDS011;10589;53.636;10.012;2024-01-15T17:15:06;9.43;;;6.60;;
20857;SDS011;10589;53.636;10.012;2024-01-15T17:17:32;10.90;;;6.23;;
20857;SDS011;10589;53.636;10.012;2024-01-15T17:19:57;11.63;;;6.20;;
20857;SDS011;10589;53.636;10.012;2024-01-15T17:22:23;10.90;;;6.17;;
20857;SDS011;10589;53.636;10.012;2024-01-15T17:24:49;16.07;;;7.50;;
20857;SDS011;10589;53.636;10.012;2024-01-15T17:27:14;11.37;;;6.93;;
20857;SDS011;10589;53.636;10.012;2024-01-15T17:29:40;12.30;;;6.63;;
20857;SDS011;10589;53.636;10.012;2024-01-15T17:32:06;17.30;;;7.00;;
20857;SDS011;10589;53.636;10.012;2024-01-15T17:34:31;13.80;;;6.77;;
20857;SDS011;10589;53.636;10.012;2024-01-15T17:36:57;18.43;;;8.03;;
20857;SDS011;10589;53.636;10.012;2024-01-15T17:39:23;10.63;;;6.90;;
20857;SDS011;10589;53.636;10.012;2024-01-15T17:41:49;14.57;;;8.37;;
20857;SDS011;10589;53.636;10.012;2024-01-15T17:44:15;14.93;;;8.03;;
20857;SDS011;10589;53.636;10.012;2024-01-15T17:46:40;18.33;;;9.60;;
20857;SDS011;10589;53.636;10.012;2024-01-15T17:49:07;18.37;;;9.80;;
20857;SDS011;10589;53.636;10.012;2024-01-15T17:51:33;15.80;;;9.93;;
20857;SDS011;10589;53.636;10.012;2024-01-15T17:53:59;15.37;;;9.53;;
20857;SDS011;10589;53.636;10.012;2024-01-15T17:56:25;18.60;;;10.27;;
20857;SDS011;10589;53.636;10.012;2024-01-15T17:58:51;19.83;;;9.47;;
20857;SDS011;10589;53.636;10.012;2024-01-15T18:01:17;17.60;;;9.87;;
20857;SDS011;10589;53.636;10.012;2024-01-15T18:03:46;20.73;;;10.27;;
20857;SDS011;10589;53.636;10.012;2024-01-15T18:06:11;15.90;;;9.47;;
20857;SDS011;10589;53.636;10.012;2024-01-15T18:08:37;19.77;;;9.17;;
20857;SDS011;10589;53.636;10.012;2024-01-15T18:11:03;22.30;;;9.97;;
20857;SDS011;10589;53.636;10.012;2024-01-15T18:13:32;19.27;;;8.90;;
20857;SDS011;10589;53.636;10.012;2024-01-15T18:15:57;20.03;;;9.57;;
20857;SDS011;10589;53.636;10.012;2024-01-15T18:18:23;19.07;;;9.63;;
20857;SDS011;10589;53.636;10.012;2024-01-15T18:20:50;14.37;;;9.00;;
20857;SDS011;10589;53.636;10.012;2024-01-15T18:23:15;16.60;;;8.53;;
20857;SDS011;10589;53.636;10.012;2024-01-15T18:25:41;17.67;;;9.43;;
20857;SDS011;10589;53.636;10.012;2024-01-15T18:28:07;19.37;;;9.47;;
20857;SDS011;10589;53.636;10.012;2024-01-15T18:30:33;15.07;;;8.70;;
20857;SDS011;10589;53.636;10.012;2024-01-15T18:32:59;16.83;;;9.00;;
20857;SDS011;10589;53.636;10.012;2024-01-15T18:35:25;18.27;;;8.93;;
20857;SDS011;10589;53.636;10.012;2024-01-15T18:37:51;14.00;;;7.43;;
20857;SDS011;10589;53.636;10.012;2024-01-15T18:40:18;16.47;;;8.40;;
20857;SDS011;10589;53.636;10.012;2024-01-15T18:42:43;14.33;;;7.10;;
20857;SDS011;10589;53.636;10.012;2024-01-15T18:45:09;13.80;;;7.20;;
20857;SDS011;10589;53.636;10.012;2024-01-15T18:47:35;10.27;;;5.83;;
20857;SDS011;10589;53.636;10.012;2024-01-15T18:50:01;11.33;;;5.80;;
20857;SDS011;10589;53.636;10.012;2024-01-15T18:52:27;9.60;;;4.70;;
20857;SDS011;10589;53.636;10.012;2024-01-15T18:54:53;10.90;;;4.50;;
20857;SDS011;10589;53.636;10.012;2024-01-15T18:57:18;10.67;;;4.03;;
20857;SDS011;10589;53.636;10.012;2024-01-15T18:59:44;14.20;;;3.70;;
20857;SDS011;10589;53.636;10.012;2024-01-15T19:02:12;8.07;;;3.33;;
20857;SDS011;10589;53.636;10.012;2024-01-15T19:04:38;8.73;;;3.63;;
20857;SDS011;10589;53.636;10.012;2024-01-15T19:07:04;10.47;;;3.87;;
20857;SDS011;10589;53.636;10.012;2024-01-15T19:09:31;13.10;;;5.90;;
20857;SDS011;10589;53.636;10.012;2024-01-15T19:11:57;10.13;;;4.13;;
20857;SDS011;10589;53.636;10.012;2024-01-15T19:14:23;15.30;;;5.60;;
20857;SDS011;10589;53.636;10.012;2024-01-15T19:16:49;7.90;;;3.40;;
20857;SDS011;10589;53.636;10.012;2024-01-15T19:19:14;9.63;;;3.73;;
20857;SDS011;10589;53.636;10.012;2024-01-15T19:21:40;15.83;;;4.80;;
20857;SDS011;10589;53.636;10.012;2024-01-15T19:24:05;8.77;;;3.80;;